Weather at Runsick Flying Service Airport

Public forecast

Using degrees Fahrenheit for public forecast. Weather courtesy of forecast.io.

Closest aviation weather report (METAR) to Runsick Flying Service Airport

Closest report is West Memphis Municipal Airport, 28.6 nm (52.9 km) E. Retrieved 2020/09/23 08:53 UTC (11 minutes ago):

KAWM 230853Z AUTO 06005KT 10SM FEW021 OVC043 17/16 A3005 RMK AO2 RAE18 SLP173 P0000 60000 T01720161 58009

Closest aviation forecast (TAF) to Runsick Flying Service Airport

Closest forecast is Jonesboro Municipal Airport, 41.7 nm (77.2 km) NNE. Retrieved 2020/09/23 06:22 UTC (3 hours ago):

TAF KJBR 230520Z 2306/2406 VRB04KT P6SM -SHRA OVC070 FM230800 VRB03KT 5SM -RA BR OVC030 FM231300 08007KT 5SM -RA BR OVC020 FM232100 07007KT 4SM -RA BR OVC010 FM240000 06004KT 4SM -RA BR OVC010 FM240100 07008KT 5SM -SHRA OVC010